Aviation Digital Data Service (ADDS)

Output produced by METARs form (0326 UTC 28 September 2016)
found at http://aviationweather.gov/adds/metars/
 
KPOU 272321Z 2800/2824 13003KT P6SM SKC 
     FM280500 00000KT 4SM BR SCT003 
     FM281300 05007KT P6SM SCT015 BKN025